sensor_id;sensor_type;location;lat;lon;timestamp;temperature;humidity
20171;DHT22;10245;51.344;6.620;2022-12-29T00:01:56;11.20;88.00
20171;DHT22;10245;51.344;6.620;2022-12-29T00:04:21;11.20;88.00
20171;DHT22;10245;51.344;6.620;2022-12-29T00:06:45;11.20;88.00
20171;DHT22;10245;51.344;6.620;2022-12-29T00:09:09;11.10;88.50
20171;DHT22;10245;51.344;6.620;2022-12-29T00:11:34;11.30;87.80
20171;DHT22;10245;51.344;6.620;2022-12-29T00:13:57;11.30;87.70
20171;DHT22;10245;51.344;6.620;2022-12-29T00:16:46;11.30;87.40
20171;DHT22;10245;51.344;6.620;2022-12-29T00:19:10;11.50;86.80
20171;DHT22;10245;51.344;6.620;2022-12-29T00:21:49;11.50;86.50
20171;DHT22;10245;51.344;6.620;2022-12-29T00:24:30;11.60;86.00
20171;DHT22;10245;51.344;6.620;2022-12-29T00:27:12;11.60;86.20
20171;DHT22;10245;51.344;6.620;2022-12-29T00:29:54;11.50;87.20
20171;DHT22;10245;51.344;6.620;2022-12-29T00:32:35;11.50;87.10
20171;DHT22;10245;51.344;6.620;2022-12-29T00:35:22;11.50;87.30
20171;DHT22;10245;51.344;6.620;2022-12-29T00:37:48;11.50;87.40
20171;DHT22;10245;51.344;6.620;2022-12-29T00:40:29;11.30;88.00
20171;DHT22;10245;51.344;6.620;2022-12-29T00:43:10;11.30;89.00
20171;DHT22;10245;51.344;6.620;2022-12-29T00:45:53;11.10;90.50
20171;DHT22;10245;51.344;6.620;2022-12-29T00:48:16;11.00;90.90
20171;DHT22;10245;51.344;6.620;2022-12-29T00:51:00;11.00;91.20
20171;DHT22;10245;51.344;6.620;2022-12-29T00:53:24;10.90;91.10
20171;DHT22;10245;51.344;6.620;2022-12-29T00:55:47;10.90;91.20
20171;DHT22;10245;51.344;6.620;2022-12-29T00:58:10;10.90;90.70
20171;DHT22;10245;51.344;6.620;2022-12-29T01:00:34;11.00;90.40
20171;DHT22;10245;51.344;6.620;2022-12-29T01:02:58;11.10;89.40
20171;DHT22;10245;51.344;6.620;2022-12-29T01:05:21;11.30;88.20
20171;DHT22;10245;51.344;6.620;2022-12-29T01:07:45;11.40;87.30
20171;DHT22;10245;51.344;6.620;2022-12-29T01:10:09;11.40;87.40
20171;DHT22;10245;51.344;6.620;2022-12-29T01:12:33;11.20;87.80
20171;DHT22;10245;51.344;6.620;2022-12-29T01:15:08;11.50;86.30
20171;DHT22;10245;51.344;6.620;2022-12-29T01:17:33;11.60;85.50
20171;DHT22;10245;51.344;6.620;2022-12-29T01:19:57;11.70;85.10
20171;DHT22;10245;51.344;6.620;2022-12-29T01:22:20;11.70;85.10
20171;DHT22;10245;51.344;6.620;2022-12-29T01:24:43;12.00;83.60
20171;DHT22;10245;51.344;6.620;2022-12-29T01:27:08;12.00;84.00
20171;DHT22;10245;51.344;6.620;2022-12-29T01:29:32;11.90;84.00
20171;DHT22;10245;51.344;6.620;2022-12-29T01:31:55;11.90;83.80
20171;DHT22;10245;51.344;6.620;2022-12-29T01:34:18;11.80;84.30
20171;DHT22;10245;51.344;6.620;2022-12-29T01:36:42;11.70;84.80
20171;DHT22;10245;51.344;6.620;2022-12-29T01:39:06;11.90;83.30
20171;DHT22;10245;51.344;6.620;2022-12-29T01:41:30;12.00;82.90
20171;DHT22;10245;51.344;6.620;2022-12-29T01:43:58;12.00;83.00
20171;DHT22;10245;51.344;6.620;2022-12-29T01:46:26;12.10;82.40
20171;DHT22;10245;51.344;6.620;2022-12-29T01:48:53;11.80;83.70
20171;DHT22;10245;51.344;6.620;2022-12-29T01:51:22;11.80;83.70
20171;DHT22;10245;51.344;6.620;2022-12-29T01:53:46;12.00;82.50
20171;DHT22;10245;51.344;6.620;2022-12-29T01:56:11;11.90;82.80
20171;DHT22;10245;51.344;6.620;2022-12-29T01:58:41;11.80;83.10
20171;DHT22;10245;51.344;6.620;2022-12-29T02:01:09;11.90;82.30
20171;DHT22;10245;51.344;6.620;2022-12-29T02:03:33;11.90;82.50
20171;DHT22;10245;51.344;6.620;2022-12-29T02:06:01;11.80;83.10
20171;DHT22;10245;51.344;6.620;2022-12-29T02:08:28;11.80;82.80
20171;DHT22;10245;51.344;6.620;2022-12-29T02:10:54;11.90;81.80
20171;DHT22;10245;51.344;6.620;2022-12-29T02:13:18;11.90;81.90
20171;DHT22;10245;51.344;6.620;2022-12-29T02:15:51;11.90;82.10
20171;DHT22;10245;51.344;6.620;2022-12-29T02:18:29;11.90;81.90
20171;DHT22;10245;51.344;6.620;2022-12-29T02:24:30;12.00;81.10
20171;DHT22;10245;51.344;6.620;2022-12-29T02:27:29;12.00;81.00
20171;DHT22;10245;51.344;6.620;2022-12-29T02:30:06;11.80;81.50
20171;DHT22;10245;51.344;6.620;2022-12-29T02:32:38;11.80;81.60
20171;DHT22;10245;51.344;6.620;2022-12-29T02:35:16;11.80;81.30
20171;DHT22;10245;51.344;6.620;2022-12-29T02:37:56;11.90;80.70
20171;DHT22;10245;51.344;6.620;2022-12-29T02:40:28;11.90;80.50
20171;DHT22;10245;51.344;6.620;2022-12-29T02:43:01;12.00;80.00
20171;DHT22;10245;51.344;6.620;2022-12-29T02:45:32;12.00;79.60
20171;DHT22;10245;51.344;6.620;2022-12-29T02:48:06;12.00;79.80
20171;DHT22;10245;51.344;6.620;2022-12-29T02:50:36;12.00;79.70
20171;DHT22;10245;51.344;6.620;2022-12-29T02:53:04;12.20;78.60
20171;DHT22;10245;51.344;6.620;2022-12-29T02:55:29;12.20;78.70
20171;DHT22;10245;51.344;6.620;2022-12-29T02:58:11;12.10;79.20
20171;DHT22;10245;51.344;6.620;2022-12-29T03:00:47;12.00;79.70
20171;DHT22;10245;51.344;6.620;2022-12-29T03:03:26;12.00;79.70
20171;DHT22;10245;51.344;6.620;2022-12-29T03:06:06;12.00;79.90
20171;DHT22;10245;51.344;6.620;2022-12-29T03:08:46;12.00;79.60
20171;DHT22;10245;51.344;6.620;2022-12-29T03:11:13;12.00;79.70
20171;DHT22;10245;51.344;6.620;2022-12-29T03:13:52;12.00;79.80
20171;DHT22;10245;51.344;6.620;2022-12-29T03:16:44;12.00;80.20
20171;DHT22;10245;51.344;6.620;2022-12-29T03:19:15;11.90;80.40
20171;DHT22;10245;51.344;6.620;2022-12-29T03:21:43;11.90;80.60
20171;DHT22;10245;51.344;6.620;2022-12-29T03:24:35;12.00;79.70
20171;DHT22;10245;51.344;6.620;2022-12-29T03:27:04;12.20;79.10
20171;DHT22;10245;51.344;6.620;2022-12-29T03:29:38;12.20;79.30
20171;DHT22;10245;51.344;6.620;2022-12-29T03:32:04;12.10;79.70
20171;DHT22;10245;51.344;6.620;2022-12-29T03:34:30;12.10;79.90
20171;DHT22;10245;51.344;6.620;2022-12-29T03:37:00;12.00;80.60
20171;DHT22;10245;51.344;6.620;2022-12-29T03:39:28;12.00;80.60
20171;DHT22;10245;51.344;6.620;2022-12-29T03:41:58;12.00;81.40
20171;DHT22;10245;51.344;6.620;2022-12-29T03:44:31;11.90;81.50
20171;DHT22;10245;51.344;6.620;2022-12-29T03:46:56;12.00;81.40
20171;DHT22;10245;51.344;6.620;2022-12-29T03:49:20;12.00;81.60
20171;DHT22;10245;51.344;6.620;2022-12-29T03:51:48;12.00;81.50
20171;DHT22;10245;51.344;6.620;2022-12-29T03:54:13;12.00;81.70
20171;DHT22;10245;51.344;6.620;2022-12-29T03:56:37;11.90;81.70
20171;DHT22;10245;51.344;6.620;2022-12-29T03:59:00;11.90;81.70
20171;DHT22;10245;51.344;6.620;2022-12-29T04:01:32;11.90;81.90
20171;DHT22;10245;51.344;6.620;2022-12-29T04:03:56;12.00;81.80
20171;DHT22;10245;51.344;6.620;2022-12-29T04:06:20;12.00;81.80
20171;DHT22;10245;51.344;6.620;2022-12-29T04:08:49;12.00;81.70
20171;DHT22;10245;51.344;6.620;2022-12-29T04:11:13;12.00;81.60
20171;DHT22;10245;51.344;6.620;2022-12-29T04:13:36;12.00;81.10
20171;DHT22;10245;51.344;6.620;2022-12-29T04:16:04;12.00;81.20
20171;DHT22;10245;51.344;6.620;2022-12-29T04:18:28;12.10;80.80
20171;DHT22;10245;51.344;6.620;2022-12-29T04:20:52;12.20;80.40
20171;DHT22;10245;51.344;6.620;2022-12-29T04:23:28;12.10;80.50
20171;DHT22;10245;51.344;6.620;2022-12-29T04:25:53;12.00;81.20
20171;DHT22;10245;51.344;6.620;2022-12-29T04:28:16;12.10;80.40
20171;DHT22;10245;51.344;6.620;2022-12-29T04:30:45;12.20;79.90
20171;DHT22;10245;51.344;6.620;2022-12-29T04:33:13;12.40;78.70
20171;DHT22;10245;51.344;6.620;2022-12-29T04:35:39;12.40;78.60
20171;DHT22;10245;51.344;6.620;2022-12-29T04:38:03;12.30;79.20
20171;DHT22;10245;51.344;6.620;2022-12-29T04:40:26;12.40;78.50
20171;DHT22;10245;51.344;6.620;2022-12-29T04:42:51;12.30;79.00
20171;DHT22;10245;51.344;6.620;2022-12-29T04:45:16;12.20;79.00
20171;DHT22;10245;51.344;6.620;2022-12-29T04:48:06;12.30;78.30
20171;DHT22;10245;51.344;6.620;2022-12-29T04:50:38;12.20;79.10
20171;DHT22;10245;51.344;6.620;2022-12-29T04:53:10;12.50;77.60
20171;DHT22;10245;51.344;6.620;2022-12-29T04:55:33;12.40;77.60
20171;DHT22;10245;51.344;6.620;2022-12-29T04:57:58;12.40;77.30
20171;DHT22;10245;51.344;6.620;2022-12-29T05:00:24;12.30;77.60
20171;DHT22;10245;51.344;6.620;2022-12-29T05:02:48;12.30;77.50
20171;DHT22;10245;51.344;6.620;2022-12-29T05:05:12;12.40;76.80
20171;DHT22;10245;51.344;6.620;2022-12-29T05:07:40;12.50;75.70
20171;DHT22;10245;51.344;6.620;2022-12-29T05:10:04;12.50;75.50
20171;DHT22;10245;51.344;6.620;2022-12-29T05:12:30;12.40;76.30
20171;DHT22;10245;51.344;6.620;2022-12-29T05:14:56;12.50;75.10
20171;DHT22;10245;51.344;6.620;2022-12-29T05:17:19;12.50;74.80
20171;DHT22;10245;51.344;6.620;2022-12-29T05:19:42;12.50;74.60
20171;DHT22;10245;51.344;6.620;2022-12-29T05:22:06;12.50;74.20
20171;DHT22;10245;51.344;6.620;2022-12-29T05:24:30;12.50;73.20
20171;DHT22;10245;51.344;6.620;2022-12-29T05:26:54;12.50;73.00
20171;DHT22;10245;51.344;6.620;2022-12-29T05:29:36;12.40;73.30
20171;DHT22;10245;51.344;6.620;2022-12-29T05:32:01;12.20;75.70
20171;DHT22;10245;51.344;6.620;2022-12-29T05:34:24;12.00;77.40
20171;DHT22;10245;51.344;6.620;2022-12-29T05:36:48;11.80;79.00
20171;DHT22;10245;51.344;6.620;2022-12-29T05:39:11;11.70;80.00
20171;DHT22;10245;51.344;6.620;2022-12-29T05:41:37;11.60;80.80
20171;DHT22;10245;51.344;6.620;2022-12-29T05:44:21;11.50;81.40
20171;DHT22;10245;51.344;6.620;2022-12-29T05:47:05;11.40;82.50
20171;DHT22;10245;51.344;6.620;2022-12-29T05:49:51;11.30;82.90
20171;DHT22;10245;51.344;6.620;2022-12-29T05:52:38;11.30;83.20
20171;DHT22;10245;51.344;6.620;2022-12-29T05:55:01;11.20;83.70
20171;DHT22;10245;51.344;6.620;2022-12-29T05:57:26;11.20;83.90
20171;DHT22;10245;51.344;6.620;2022-12-29T05:59:59;11.20;83.90
20171;DHT22;10245;51.344;6.620;2022-12-29T06:02:25;11.10;84.10
20171;DHT22;10245;51.344;6.620;2022-12-29T06:04:48;11.10;84.20
20171;DHT22;10245;51.344;6.620;2022-12-29T06:07:12;11.10;84.10
20171;DHT22;10245;51.344;6.620;2022-12-29T06:09:38;11.10;84.10
20171;DHT22;10245;51.344;6.620;2022-12-29T06:12:02;11.00;84.30
20171;DHT22;10245;51.344;6.620;2022-12-29T06:14:27;11.00;84.10
20171;DHT22;10245;51.344;6.620;2022-12-29T06:16:52;11.00;84.00
20171;DHT22;10245;51.344;6.620;2022-12-29T06:19:17;11.10;83.60
20171;DHT22;10245;51.344;6.620;2022-12-29T06:21:41;11.20;82.70
20171;DHT22;10245;51.344;6.620;2022-12-29T06:24:05;11.20;82.40
20171;DHT22;10245;51.344;6.620;2022-12-29T06:26:31;11.30;81.80
20171;DHT22;10245;51.344;6.620;2022-12-29T06:28:54;11.60;80.20
20171;DHT22;10245;51.344;6.620;2022-12-29T06:31:17;11.60;80.10
20171;DHT22;10245;51.344;6.620;2022-12-29T06:33:42;11.60;79.90
20171;DHT22;10245;51.344;6.620;2022-12-29T06:36:12;11.70;79.30
20171;DHT22;10245;51.344;6.620;2022-12-29T06:38:35;11.80;78.60
20171;DHT22;10245;51.344;6.620;2022-12-29T06:40:59;11.80;78.50
20171;DHT22;10245;51.344;6.620;2022-12-29T06:43:45;11.80;78.70
20171;DHT22;10245;51.344;6.620;2022-12-29T06:46:17;11.70;79.20
20171;DHT22;10245;51.344;6.620;2022-12-29T06:48:41;11.70;78.60
20171;DHT22;10245;51.344;6.620;2022-12-29T06:51:04;11.70;78.30
20171;DHT22;10245;51.344;6.620;2022-12-29T06:53:29;11.80;77.90
20171;DHT22;10245;51.344;6.620;2022-12-29T06:55:52;11.80;77.60
20171;DHT22;10245;51.344;6.620;2022-12-29T06:58:16;11.90;77.70
20171;DHT22;10245;51.344;6.620;2022-12-29T07:00:39;11.70;78.40
20171;DHT22;10245;51.344;6.620;2022-12-29T07:03:02;11.70;77.90
20171;DHT22;10245;51.344;6.620;2022-12-29T07:05:26;11.80;77.30
20171;DHT22;10245;51.344;6.620;2022-12-29T07:07:50;11.70;77.70
20171;DHT22;10245;51.344;6.620;2022-12-29T07:10:15;11.80;77.10
20171;DHT22;10245;51.344;6.620;2022-12-29T07:12:39;11.80;76.80
20171;DHT22;10245;51.344;6.620;2022-12-29T07:15:02;11.80;76.90
20171;DHT22;10245;51.344;6.620;2022-12-29T07:17:26;11.80;77.10
20171;DHT22;10245;51.344;6.620;2022-12-29T07:19:49;11.80;76.80
20171;DHT22;10245;51.344;6.620;2022-12-29T07:22:13;11.70;77.10
20171;DHT22;10245;51.344;6.620;2022-12-29T07:24:36;11.80;76.50
20171;DHT22;10245;51.344;6.620;2022-12-29T07:27:01;11.70;76.60
20171;DHT22;10245;51.344;6.620;2022-12-29T07:29:24;11.80;76.20
20171;DHT22;10245;51.344;6.620;2022-12-29T07:31:47;11.90;74.90
20171;DHT22;10245;51.344;6.620;2022-12-29T07:34:11;11.80;75.50
20171;DHT22;10245;51.344;6.620;2022-12-29T07:36:34;11.80;75.30
20171;DHT22;10245;51.344;6.620;2022-12-29T07:38:58;11.70;75.40
20171;DHT22;10245;51.344;6.620;2022-12-29T07:41:21;11.70;75.70
20171;DHT22;10245;51.344;6.620;2022-12-29T07:43:48;11.60;75.30
20171;DHT22;10245;51.344;6.620;2022-12-29T07:46:43;11.60;75.60
20171;DHT22;10245;51.344;6.620;2022-12-29T07:49:18;11.70;75.10
20171;DHT22;10245;51.344;6.620;2022-12-29T07:51:41;11.50;76.50
20171;DHT22;10245;51.344;6.620;2022-12-29T07:54:04;11.50;75.60
20171;DHT22;10245;51.344;6.620;2022-12-29T07:56:28;11.70;74.10
20171;DHT22;10245;51.344;6.620;2022-12-29T07:58:53;11.60;75.20
20171;DHT22;10245;51.344;6.620;2022-12-29T08:01:16;11.60;75.10
20171;DHT22;10245;51.344;6.620;2022-12-29T08:03:40;11.50;75.60
20171;DHT22;10245;51.344;6.620;2022-12-29T08:06:03;11.50;76.10
20171;DHT22;10245;51.344;6.620;2022-12-29T08:08:27;11.50;75.20
20171;DHT22;10245;51.344;6.620;2022-12-29T08:10:50;11.60;74.90
20171;DHT22;10245;51.344;6.620;2022-12-29T08:13:14;11.60;74.70
20171;DHT22;10245;51.344;6.620;2022-12-29T08:15:39;11.50;75.20
20171;DHT22;10245;51.344;6.620;2022-12-29T08:18:03;11.70;74.20
20171;DHT22;10245;51.344;6.620;2022-12-29T08:20:26;11.60;74.60
20171;DHT22;10245;51.344;6.620;2022-12-29T08:22:51;11.50;75.20
20171;DHT22;10245;51.344;6.620;2022-12-29T08:25:14;11.60;74.80
20171;DHT22;10245;51.344;6.620;2022-12-29T08:27:38;11.60;75.00
20171;DHT22;10245;51.344;6.620;2022-12-29T08:30:01;11.50;75.60
20171;DHT22;10245;51.344;6.620;2022-12-29T08:32:27;11.50;75.10
20171;DHT22;10245;51.344;6.620;2022-12-29T08:34:51;11.50;75.70
20171;DHT22;10245;51.344;6.620;2022-12-29T08:37:14;11.50;75.80
20171;DHT22;10245;51.344;6.620;2022-12-29T08:39:37;11.40;76.50
20171;DHT22;10245;51.344;6.620;2022-12-29T08:42:00;11.50;75.90
20171;DHT22;10245;51.344;6.620;2022-12-29T08:44:24;11.30;76.30
20171;DHT22;10245;51.344;6.620;2022-12-29T08:46:47;11.40;75.30
20171;DHT22;10245;51.344;6.620;2022-12-29T08:49:12;11.30;75.10
20171;DHT22;10245;51.344;6.620;2022-12-29T08:51:35;11.20;75.50
20171;DHT22;10245;51.344;6.620;2022-12-29T08:53:59;11.10;76.00
20171;DHT22;10245;51.344;6.620;2022-12-29T08:56:22;11.00;76.70
20171;DHT22;10245;51.344;6.620;2022-12-29T08:58:50;11.00;76.10
20171;DHT22;10245;51.344;6.620;2022-12-29T09:01:15;11.10;76.00
20171;DHT22;10245;51.344;6.620;2022-12-29T09:03:39;11.00;76.60
20171;DHT22;10245;51.344;6.620;2022-12-29T09:06:23;11.10;76.40
20171;DHT22;10245;51.344;6.620;2022-12-29T09:08:47;11.20;76.20
20171;DHT22;10245;51.344;6.620;2022-12-29T09:11:13;11.30;75.60
20171;DHT22;10245;51.344;6.620;2022-12-29T09:13:38;11.30;75.70
20171;DHT22;10245;51.344;6.620;2022-12-29T09:16:01;11.20;76.30
20171;DHT22;10245;51.344;6.620;2022-12-29T09:18:25;11.30;76.20
20171;DHT22;10245;51.344;6.620;2022-12-29T09:20:48;11.30;75.50
20171;DHT22;10245;51.344;6.620;2022-12-29T09:23:13;11.30;76.50
20171;DHT22;10245;51.344;6.620;2022-12-29T09:25:36;11.30;76.00
20171;DHT22;10245;51.344;6.620;2022-12-29T09:27:59;11.30;75.00
20171;DHT22;10245;51.344;6.620;2022-12-29T09:30:26;11.40;74.70
20171;DHT22;10245;51.344;6.620;2022-12-29T09:32:49;11.40;75.00
20171;DHT22;10245;51.344;6.620;2022-12-29T09:35:16;11.30;75.00
20171;DHT22;10245;51.344;6.620;2022-12-29T09:37:40;11.40;74.60
20171;DHT22;10245;51.344;6.620;2022-12-29T09:40:06;11.40;74.10
20171;DHT22;10245;51.344;6.620;2022-12-29T09:42:38;11.50;74.20
20171;DHT22;10245;51.344;6.620;2022-12-29T09:45:11;11.50;73.70
20171;DHT22;10245;51.344;6.620;2022-12-29T09:47:38;11.50;73.60
20171;DHT22;10245;51.344;6.620;2022-12-29T09:50:08;11.40;73.70
20171;DHT22;10245;51.344;6.620;2022-12-29T09:52:38;11.50;72.90
20171;DHT22;10245;51.344;6.620;2022-12-29T09:55:12;11.50;73.00
20171;DHT22;10245;51.344;6.620;2022-12-29T09:57:42;11.50;72.50
20171;DHT22;10245;51.344;6.620;2022-12-29T10:00:14;11.50;72.00
20171;DHT22;10245;51.344;6.620;2022-12-29T10:02:43;11.50;72.30
20171;DHT22;10245;51.344;6.620;2022-12-29T10:05:23;11.50;72.20
20171;DHT22;10245;51.344;6.620;2022-12-29T10:07:59;11.50;71.50
20171;DHT22;10245;51.344;6.620;2022-12-29T10:10:42;11.50;71.10
20171;DHT22;10245;51.344;6.620;2022-12-29T10:13:21;11.50;70.40
20171;DHT22;10245;51.344;6.620;2022-12-29T10:15:59;11.40;71.70
20171;DHT22;10245;51.344;6.620;2022-12-29T10:21:34;11.50;69.70
20171;DHT22;10245;51.344;6.620;2022-12-29T10:24:09;11.60;69.20
20171;DHT22;10245;51.344;6.620;2022-12-29T10:26:39;11.60;68.90
20171;DHT22;10245;51.344;6.620;2022-12-29T10:29:05;11.60;69.90
20171;DHT22;10245;51.344;6.620;2022-12-29T10:31:33;11.60;69.70
20171;DHT22;10245;51.344;6.620;2022-12-29T10:34:01;11.70;69.10
20171;DHT22;10245;51.344;6.620;2022-12-29T10:36:33;11.60;69.10
20171;DHT22;10245;51.344;6.620;2022-12-29T10:39:04;11.60;69.40
20171;DHT22;10245;51.344;6.620;2022-12-29T10:41:36;11.70;69.10
20171;DHT22;10245;51.344;6.620;2022-12-29T10:44:03;11.60;70.60
20171;DHT22;10245;51.344;6.620;2022-12-29T10:46:30;11.60;68.90
20171;DHT22;10245;51.344;6.620;2022-12-29T10:48:56;11.70;68.80
20171;DHT22;10245;51.344;6.620;2022-12-29T10:51:22;11.70;68.80
20171;DHT22;10245;51.344;6.620;2022-12-29T10:53:50;11.70;69.60
20171;DHT22;10245;51.344;6.620;2022-12-29T10:56:25;11.70;68.90
20171;DHT22;10245;51.344;6.620;2022-12-29T10:58:54;11.70;69.10
20171;DHT22;10245;51.344;6.620;2022-12-29T11:01:18;11.60;69.70
20171;DHT22;10245;51.344;6.620;2022-12-29T11:03:57;11.60;69.80
20171;DHT22;10245;51.344;6.620;2022-12-29T11:06:27;11.60;69.60
20171;DHT22;10245;51.344;6.620;2022-12-29T11:08:55;11.60;69.50
20171;DHT22;10245;51.344;6.620;2022-12-29T11:11:24;11.60;69.80
20171;DHT22;10245;51.344;6.620;2022-12-29T11:13:54;11.70;69.00
20171;DHT22;10245;51.344;6.620;2022-12-29T11:16:27;11.60;70.00
20171;DHT22;10245;51.344;6.620;2022-12-29T11:18:53;11.70;69.00
20171;DHT22;10245;51.344;6.620;2022-12-29T11:21:27;11.60;69.00
20171;DHT22;10245;51.344;6.620;2022-12-29T11:23:58;11.70;68.30
20171;DHT22;10245;51.344;6.620;2022-12-29T11:26:23;11.70;67.90
20171;DHT22;10245;51.344;6.620;2022-12-29T11:29:22;11.70;68.00
20171;DHT22;10245;51.344;6.620;2022-12-29T11:31:49;11.70;68.70
20171;DHT22;10245;51.344;6.620;2022-12-29T11:34:17;11.60;68.30
20171;DHT22;10245;51.344;6.620;2022-12-29T11:36:42;11.70;68.70
20171;DHT22;10245;51.344;6.620;2022-12-29T11:39:05;11.80;67.70
20171;DHT22;10245;51.344;6.620;2022-12-29T11:41:35;11.80;67.90
20171;DHT22;10245;51.344;6.620;2022-12-29T11:43:59;11.80;68.30
20171;DHT22;10245;51.344;6.620;2022-12-29T11:46:28;11.70;67.50
20171;DHT22;10245;51.344;6.620;2022-12-29T11:48:53;11.70;67.90
20171;DHT22;10245;51.344;6.620;2022-12-29T11:51:24;11.70;68.30
20171;DHT22;10245;51.344;6.620;2022-12-29T11:53:55;11.80;67.60
20171;DHT22;10245;51.344;6.620;2022-12-29T11:56:22;11.80;67.30
20171;DHT22;10245;51.344;6.620;2022-12-29T11:59:34;11.80;66.80
20171;DHT22;10245;51.344;6.620;2022-12-29T12:02:18;11.80;67.20
20171;DHT22;10245;51.344;6.620;2022-12-29T12:04:49;11.80;67.50
20171;DHT22;10245;51.344;6.620;2022-12-29T12:07:33;11.70;67.50
20171;DHT22;10245;51.344;6.620;2022-12-29T12:10:01;11.80;67.90
20171;DHT22;10245;51.344;6.620;2022-12-29T12:12:35;11.70;67.40
20171;DHT22;10245;51.344;6.620;2022-12-29T12:15:03;11.70;67.50
20171;DHT22;10245;51.344;6.620;2022-12-29T12:17:49;11.70;67.80
20171;DHT22;10245;51.344;6.620;2022-12-29T12:20:18;11.70;68.30
20171;DHT22;10245;51.344;6.620;2022-12-29T12:22:48;11.70;68.00
20171;DHT22;10245;51.344;6.620;2022-12-29T12:25:18;11.60;68.20
20171;DHT22;10245;51.344;6.620;2022-12-29T12:27:48;11.60;68.70
20171;DHT22;10245;51.344;6.620;2022-12-29T12:30:16;11.60;68.10
20171;DHT22;10245;51.344;6.620;2022-12-29T12:32:48;11.50;68.70
20171;DHT22;10245;51.344;6.620;2022-12-29T12:35:21;11.60;68.40
20171;DHT22;10245;51.344;6.620;2022-12-29T12:38:10;11.60;68.20
20171;DHT22;10245;51.344;6.620;2022-12-29T12:41:00;11.50;68.80
20171;DHT22;10245;51.344;6.620;2022-12-29T12:43:38;11.50;68.70
20171;DHT22;10245;51.344;6.620;2022-12-29T12:46:15;11.50;68.70
20171;DHT22;10245;51.344;6.620;2022-12-29T12:49:04;11.50;68.60
20171;DHT22;10245;51.344;6.620;2022-12-29T12:51:42;11.60;68.20
20171;DHT22;10245;51.344;6.620;2022-12-29T12:54:21;11.50;68.80
20171;DHT22;10245;51.344;6.620;2022-12-29T12:57:05;11.50;68.80
20171;DHT22;10245;51.344;6.620;2022-12-29T12:59:42;11.50;68.90
20171;DHT22;10245;51.344;6.620;2022-12-29T13:02:22;11.50;68.90
20171;DHT22;10245;51.344;6.620;2022-12-29T13:08:13;11.50;68.70
20171;DHT22;10245;51.344;6.620;2022-12-29T13:10:50;11.50;69.20
20171;DHT22;10245;51.344;6.620;2022-12-29T13:13:34;11.50;68.70
20171;DHT22;10245;51.344;6.620;2022-12-29T13:16:23;11.50;69.20
20171;DHT22;10245;51.344;6.620;2022-12-29T13:18:56;11.50;68.90
20171;DHT22;10245;51.344;6.620;2022-12-29T13:21:34;11.50;69.80
20171;DHT22;10245;51.344;6.620;2022-12-29T13:24:21;11.40;69.30
20171;DHT22;10245;51.344;6.620;2022-12-29T13:26:52;11.40;70.30
20171;DHT22;10245;51.344;6.620;2022-12-29T13:29:20;11.40;69.30
20171;DHT22;10245;51.344;6.620;2022-12-29T13:31:52;11.40;69.40
20171;DHT22;10245;51.344;6.620;2022-12-29T13:34:28;11.40;70.00
20171;DHT22;10245;51.344;6.620;2022-12-29T13:37:00;11.30;69.80
20171;DHT22;10245;51.344;6.620;2022-12-29T13:39:31;11.30;70.50
20171;DHT22;10245;51.344;6.620;2022-12-29T13:41:57;11.30;70.50
20171;DHT22;10245;51.344;6.620;2022-12-29T13:44:25;11.40;69.40
20171;DHT22;10245;51.344;6.620;2022-12-29T13:47:00;11.30;69.70
20171;DHT22;10245;51.344;6.620;2022-12-29T13:49:26;11.30;69.10
20171;DHT22;10245;51.344;6.620;2022-12-29T13:51:52;11.40;68.90
20171;DHT22;10245;51.344;6.620;2022-12-29T13:54:30;11.40;68.80
20171;DHT22;10245;51.344;6.620;2022-12-29T13:57:06;11.40;69.10
20171;DHT22;10245;51.344;6.620;2022-12-29T13:59:40;11.40;69.00
20171;DHT22;10245;51.344;6.620;2022-12-29T14:02:17;11.30;69.60
20171;DHT22;10245;51.344;6.620;2022-12-29T14:04:56;11.30;69.30
20171;DHT22;10245;51.344;6.620;2022-12-29T14:07:21;11.30;69.00
20171;DHT22;10245;51.344;6.620;2022-12-29T14:09:48;11.30;69.30
20171;DHT22;10245;51.344;6.620;2022-12-29T14:12:21;11.30;69.50
20171;DHT22;10245;51.344;6.620;2022-12-29T14:14:51;11.30;69.10
20171;DHT22;10245;51.344;6.620;2022-12-29T14:17:19;11.30;69.00
20171;DHT22;10245;51.344;6.620;2022-12-29T14:19:44;11.30;68.90
20171;DHT22;10245;51.344;6.620;2022-12-29T14:22:09;11.30;69.30
20171;DHT22;10245;51.344;6.620;2022-12-29T14:24:42;11.30;70.20
20171;DHT22;10245;51.344;6.620;2022-12-29T14:27:51;11.30;69.10
20171;DHT22;10245;51.344;6.620;2022-12-29T14:30:45;11.30;69.60
20171;DHT22;10245;51.344;6.620;2022-12-29T14:33:13;11.20;69.80
20171;DHT22;10245;51.344;6.620;2022-12-29T14:35:39;11.20;70.10
20171;DHT22;10245;51.344;6.620;2022-12-29T14:38:21;11.20;70.40
20171;DHT22;10245;51.344;6.620;2022-12-29T14:40:50;11.20;69.90
20171;DHT22;10245;51.344;6.620;2022-12-29T14:43:22;11.10;70.10
20171;DHT22;10245;51.344;6.620;2022-12-29T14:45:54;11.20;69.90
20171;DHT22;10245;51.344;6.620;2022-12-29T14:48:39;11.10;70.30
20171;DHT22;10245;51.344;6.620;2022-12-29T14:51:20;11.10;70.20
20171;DHT22;10245;51.344;6.620;2022-12-29T14:53:51;11.10;70.40
20171;DHT22;10245;51.344;6.620;2022-12-29T14:56:15;11.10;69.90
20171;DHT22;10245;51.344;6.620;2022-12-29T14:58:46;11.10;70.10
20171;DHT22;10245;51.344;6.620;2022-12-29T15:01:18;11.10;70.30
20171;DHT22;10245;51.344;6.620;2022-12-29T15:03:47;11.00;71.10
20171;DHT22;10245;51.344;6.620;2022-12-29T15:06:13;11.10;70.40
20171;DHT22;10245;51.344;6.620;2022-12-29T15:08:48;11.00;70.40
20171;DHT22;10245;51.344;6.620;2022-12-29T15:11:17;11.00;70.70
20171;DHT22;10245;51.344;6.620;2022-12-29T15:13:44;11.00;71.00
20171;DHT22;10245;51.344;6.620;2022-12-29T15:16:21;11.00;71.00
20171;DHT22;10245;51.344;6.620;2022-12-29T15:18:46;11.00;70.80
20171;DHT22;10245;51.344;6.620;2022-12-29T15:21:13;11.00;70.30
20171;DHT22;10245;51.344;6.620;2022-12-29T15:23:37;11.00;70.40
20171;DHT22;10245;51.344;6.620;2022-12-29T15:26:04;10.90;70.90
20171;DHT22;10245;51.344;6.620;2022-12-29T15:28:37;11.00;70.40
20171;DHT22;10245;51.344;6.620;2022-12-29T15:31:05;10.90;70.60
20171;DHT22;10245;51.344;6.620;2022-12-29T15:33:29;11.00;70.50
20171;DHT22;10245;51.344;6.620;2022-12-29T15:35:55;10.90;70.80
20171;DHT22;10245;51.344;6.620;2022-12-29T15:38:22;10.80;71.20
20171;DHT22;10245;51.344;6.620;2022-12-29T15:40:56;10.90;70.50
20171;DHT22;10245;51.344;6.620;2022-12-29T15:43:30;10.90;70.30
20171;DHT22;10245;51.344;6.620;2022-12-29T15:46:11;10.80;70.20
20171;DHT22;10245;51.344;6.620;2022-12-29T15:48:35;10.80;70.00
20171;DHT22;10245;51.344;6.620;2022-12-29T15:51:01;10.80;69.80
20171;DHT22;10245;51.344;6.620;2022-12-29T15:53:27;10.60;70.40
20171;DHT22;10245;51.344;6.620;2022-12-29T15:55:52;10.60;70.30